Aérodrome :
LOGIN :

S'inscrire | Disclaimer

   EN    FR    IT 

 










Légende :    VFR   VFR Marginal   IFR   IFR Intensif   IFR Très Intensif
Visi : 
Plafond : 
>= 8 km
>= 3000ft
5 à 8 km
1000 à 3000 ft
1500m à 5 km
500 à 1000 ft
800 à 1500m
200 à 500 ft
< 800m
< 200 ft
Symboles :   Orages  Brouillard  Fortes neiges  Fortes précipitations  Vent > 20 kt
SIGMETs :   Divers  Orages  Givrage  Turbulence  Onde Orograph.  Cendres Volcan.






- Altitude de l'aérodrome : 17 ft
- Code IATA : GRQ


EHGG - Groningen Eelde

DERNIER METAR :
  • 250855Z AUTO 20010KT 2800 BR FEW003 BKN004 OVC005 03/02 Q1020 BECMG 4000

METARs EXPIRÉS :
  • 250825Z AUTO 20009KT 170V230 3000 BR BKN004 OVC005 03/02 Q1020 NOSIG
  • 250755Z AUTO 20009KT 3000 BR BKN004 OVC005 03/02 Q1020 NOSIG
  • 250725Z AUTO 20009KT 3000 BR BKN004 OVC005 03/02 Q1020 TEMPO 2000
  • 250655Z AUTO 20010KT 2800 BR FEW003 OVC004 03/02 Q1020 TEMPO 3000
  • 250625Z AUTO 20010KT 2700 BR SCT004 OVC005 03/02 Q1020 TEMPO 3000

TAF TAF EHGG
Valide du 25 à 06h jusqu'au 26 à 12h UTC


250509Z 2506/2612 21008KT 3500 BR OVC003
PROB40
TEMPO 2506/2510 2000 OVC002
BECMG 2510/2512 5000 OVC006
PROB30 2513/2524 8000 NSW FEW008 BKN016
BECMG 2600/2603 2000 BR OVC002
PROB40 2602/2609 0600 FG VV001
BECMG 2609/2611 18010KT 5000 BKN007



MET'MAP, la Météo Aéronautique d'un coup d'oeil ! - Copyright ORBIFLY Décembre 2007 - Disclaimer

ORBIFLY MET'MAP TEAM :

Programmation & Développement : Alexandra Zaïnal
Sur une idée originale de : Baudouin d'Aumeries
Assistance à la programmation : Marc-Olivier Méhu
Soutien technique & logistique : Manuel Goepfert

Contact : metmap@orbifly.com




SOURCES & CREDITS :

   NOAA